Time;durP1;ratioP1;P1;durP2;ratioP2;P2;SDS_P1;SDS_P2;PMS_P1;PMS_P2;Temp;Humidity;BMP_temperature;BMP_pressure;BME280_temperature;BME280_humidity;BME280_pressure;Samples;Min_cycle;Max_cycle;Signal;HPM_P1;HPM_P2
2024/01/21 00:01:00;;;;;;;10.20;3.70;;;;;;;-0.33;100.00;102322.41;5271640;28;20106;-71
2024/01/21 00:03:30;;;;;;;9.80;3.63;;;;;;;-0.29;100.00;102318.75;5271830;28;20032;-71
2024/01/21 00:06:01;;;;;;;9.70;3.53;;;;;;;-0.30;100.00;102311.75;5274806;28;20118;-71
2024/01/21 00:08:31;;;;;;;9.75;3.53;;;;;;;-0.24;100.00;102305.38;5271671;28;20028;-71
2024/01/21 00:11:02;;;;;;;7.20;3.42;;;;;;;-0.22;100.00;102313.22;5271771;28;20161;-71
2024/01/21 00:13:32;;;;;;;7.43;2.92;;;;;;;-0.15;100.00;102312.03;5272969;28;20020;-72
2024/01/21 00:16:03;;;;;;;6.25;2.63;;;;;;;-0.02;100.00;102300.94;5269253;28;20508;-71
2024/01/21 00:18:33;;;;;;;10.32;3.00;;;;;;;-0.04;100.00;102289.59;5271340;28;20077;-71
2024/01/21 00:21:04;;;;;;;8.02;3.63;;;;;;;-0.04;100.00;102297.50;5273946;28;20031;-71
2024/01/21 00:23:35;;;;;;;8.32;3.47;;;;;;;-0.13;100.00;102286.47;5271247;28;20032;-71
2024/01/21 00:26:05;;;;;;;15.23;3.50;;;;;;;-0.05;100.00;102276.44;5271938;28;20152;-71
2024/01/21 00:28:36;;;;;;;6.45;3.53;;;;;;;-0.04;100.00;102268.50;5271535;28;20477;-71
2024/01/21 00:31:06;;;;;;;8.63;3.08;;;;;;;-0.05;100.00;102258.88;5273184;28;20032;-71
2024/01/21 00:33:37;;;;;;;13.73;3.67;;;;;;;0.05;100.00;102248.78;5271949;28;20477;-71
2024/01/21 00:36:08;;;;;;;10.43;3.80;;;;;;;-0.02;100.00;102239.41;5272082;28;20060;-72
2024/01/21 00:38:38;;;;;;;8.88;3.33;;;;;;;-0.15;100.00;102232.91;5271388;28;20032;-71
2024/01/21 00:41:13;;;;;;;8.32;3.63;;;;;;;-0.14;100.00;102237.28;5274381;28;20075;-71
2024/01/21 00:43:43;;;;;;;9.85;3.67;;;;;;;0.00;100.00;102234.94;5271163;28;20393;-71
2024/01/21 00:46:14;;;;;;;8.73;3.63;;;;;;;0.07;100.00;102231.09;5272970;28;20027;-72
2024/01/21 00:48:44;;;;;;;9.55;3.42;;;;;;;0.14;100.00;102214.06;5268759;28;20024;-72
2024/01/21 00:51:15;;;;;;;11.25;4.50;;;;;;;0.21;100.00;102218.19;5273170;28;20015;-71
2024/01/21 00:53:46;;;;;;;8.27;3.83;;;;;;;0.22;100.00;102219.88;5271803;28;20035;-71
2024/01/21 00:56:16;;;;;;;8.77;3.42;;;;;;;0.27;100.00;102213.56;5271665;28;20019;-71
2024/01/21 00:58:47;;;;;;;9.98;4.05;;;;;;;0.35;100.00;102211.41;5270496;28;20036;-71
2024/01/21 01:01:17;;;;;;;9.77;4.28;;;;;;;0.30;100.00;102206.34;5272664;28;20114;-71
2024/01/21 01:03:48;;;;;;;11.57;4.55;;;;;;;0.34;100.00;102209.72;5271116;28;20233;-71
2024/01/21 01:06:18;;;;;;;9.25;3.10;;;;;;;0.37;100.00;102196.38;5270755;28;20533;-71
2024/01/21 01:08:48;;;;;;;9.32;3.95;;;;;;;0.47;100.00;102192.41;5268990;28;20032;-71
2024/01/21 01:11:21;;;;;;;8.80;4.07;;;;;;;0.51;100.00;102179.00;5271214;28;20023;-71
2024/01/21 01:13:51;;;;;;;10.07;4.00;;;;;;;0.65;100.00;102170.47;5270049;28;20039;-71
2024/01/21 01:16:22;;;;;;;10.68;3.80;;;;;;;0.71;100.00;102170.19;5268610;28;20032;-71
2024/01/21 01:18:53;;;;;;;10.13;4.40;;;;;;;0.87;100.00;102172.13;5268916;28;20050;-71
2024/01/21 01:21:23;;;;;;;11.65;4.10;;;;;;;0.84;100.00;102166.97;5269265;28;20030;-71
2024/01/21 01:23:54;;;;;;;11.77;4.43;;;;;;;0.88;100.00;102163.25;5270614;28;20492;-71
2024/01/21 01:26:24;;;;;;;9.75;4.25;;;;;;;1.00;100.00;102163.53;5268394;28;20107;-71
2024/01/21 01:28:54;;;;;;;10.93;4.43;;;;;;;1.02;100.00;102156.38;5270014;28;20043;-71
2024/01/21 01:31:25;;;;;;;11.55;4.63;;;;;;;1.09;100.00;102154.28;5269079;28;20026;-71
2024/01/21 01:33:55;;;;;;;11.05;4.63;;;;;;;1.12;100.00;102145.38;5269664;28;20043;-72
2024/01/21 01:36:27;;;;;;;11.60;4.90;;;;;;;1.23;100.00;102143.91;5268277;28;20456;-71
2024/01/21 01:38:58;;;;;;;9.43;4.38;;;;;;;1.21;100.00;102145.81;5270779;28;20752;-71
2024/01/21 01:41:28;;;;;;;12.10;5.07;;;;;;;1.42;100.00;102140.38;5268537;28;20028;-71
2024/01/21 01:43:59;;;;;;;11.82;4.53;;;;;;;1.36;100.00;102140.69;5270544;28;20035;-72
2024/01/21 01:46:29;;;;;;;10.07;4.00;;;;;;;1.43;100.00;102136.81;5267286;28;20035;-72
2024/01/21 01:49:00;;;;;;;11.80;4.88;;;;;;;1.49;100.00;102139.13;5267964;28;20028;-71
2024/01/21 01:51:33;;;;;;;11.93;4.15;;;;;;;1.52;100.00;102137.22;5268646;28;20028;-72
2024/01/21 01:54:04;;;;;;;11.07;4.53;;;;;;;1.52;100.00;102134.56;5270510;28;20106;-71
2024/01/21 01:56:34;;;;;;;12.77;4.82;;;;;;;1.52;100.00;102133.72;5267833;28;20495;-71
2024/01/21 01:59:09;;;;;;;10.93;4.82;;;;;;;1.45;100.00;102127.84;5269177;28;20023;-71
2024/01/21 02:01:40;;;;;;;12.45;5.18;;;;;;;1.59;100.00;102127.16;5268266;28;20031;-72
2024/01/21 02:04:11;;;;;;;9.93;4.75;;;;;;;1.60;100.00;102128.88;5270293;28;20063;-72
2024/01/21 02:07:02;;;;;;;11.52;4.57;;;;;;;1.53;100.00;102117.75;5270351;28;20040;-72
2024/01/21 02:09:39;;;;;;;10.70;4.90;;;;;;;1.55;100.00;102107.09;5268268;28;20024;-72
2024/01/21 02:12:12;;;;;;;14.25;5.03;;;;;;;1.47;100.00;102112.78;5269759;28;20032;-72
2024/01/21 02:14:43;;;;;;;14.25;4.93;;;;;;;1.59;100.00;102103.34;5267747;28;20038;-71
2024/01/21 02:17:18;;;;;;;11.63;4.80;;;;;;;1.65;100.00;102107.47;5269911;28;20019;-72
2024/01/21 02:19:49;;;;;;;11.48;4.72;;;;;;;1.62;100.00;102099.72;5265618;28;20035;-71
2024/01/21 02:22:24;;;;;;;16.08;5.32;;;;;;;1.69;100.00;102094.03;5269643;28;20023;-71
2024/01/21 02:24:55;;;;;;;11.75;4.75;;;;;;;1.67;100.00;102092.41;5269435;28;20051;-72
2024/01/21 02:27:25;;;;;;;15.20;5.38;;;;;;;1.67;100.00;102082.69;5268710;28;20549;-72
2024/01/21 02:29:56;;;;;;;14.68;5.13;;;;;;;1.68;100.00;102084.38;5267464;28;20036;-71
2024/01/21 02:32:26;;;;;;;10.68;4.28;;;;;;;1.65;100.00;102073.94;5267936;28;20016;-71
2024/01/21 02:34:57;;;;;;;11.25;5.07;;;;;;;1.70;100.00;102084.28;5268497;28;20031;-71
2024/01/21 02:37:28;;;;;;;12.15;4.47;;;;;;;1.66;100.00;102085.41;5268440;28;20008;-71
2024/01/21 02:39:58;;;;;;;12.70;4.55;;;;;;;1.61;100.00;102084.75;5269086;28;20088;-71
2024/01/21 02:42:28;;;;;;;12.88;5.25;;;;;;;1.66;100.00;102080.13;5268010;28;20026;-71
2024/01/21 02:45:00;;;;;;;17.10;5.00;;;;;;;1.64;100.00;102079.31;5266752;28;20032;-71
2024/01/21 02:47:30;;;;;;;15.45;4.80;;;;;;;1.68;100.00;102102.91;5268123;28;20051;-71
2024/01/21 02:50:01;;;;;;;12.82;4.82;;;;;;;1.69;100.00;102093.16;5270269;28;20470;-72
2024/01/21 02:52:31;;;;;;;11.63;4.75;;;;;;;1.59;100.00;102095.44;5271928;28;20076;-71
2024/01/21 02:55:01;;;;;;;13.88;5.53;;;;;;;1.56;100.00;102087.66;5273284;28;20032;-71
2024/01/21 02:57:33;;;;;;;8.65;4.20;;;;;;;1.49;100.00;102073.03;5272185;28;20527;-72
2024/01/21 03:00:04;;;;;;;8.90;4.63;;;;;;;1.60;100.00;102065.38;5273054;28;20020;-71
2024/01/21 03:02:36;;;;;;;11.82;4.97;;;;;;;1.62;100.00;102066.19;5272022;28;20051;-71
2024/01/21 03:05:07;;;;;;;13.30;5.53;;;;;;;1.70;100.00;102063.97;5272436;28;20027;-72
2024/01/21 03:07:38;;;;;;;13.30;6.10;;;;;;;1.75;100.00;102061.09;5269679;28;20036;-71
2024/01/21 03:10:08;;;;;;;12.50;5.30;;;;;;;1.72;100.00;102055.97;5270618;28;20102;-71
2024/01/21 03:12:39;;;;;;;12.35;4.93;;;;;;;1.63;100.00;102041.44;5269595;28;20081;-72
2024/01/21 03:15:10;;;;;;;10.95;4.35;;;;;;;1.59;100.00;102042.53;5270539;28;20476;-71
2024/01/21 03:17:40;;;;;;;11.25;4.85;;;;;;;1.65;100.00;102039.56;5271473;28;20035;-72
2024/01/21 03:20:11;;;;;;;10.07;3.92;;;;;;;1.63;100.00;102040.59;5271068;28;20107;-72
2024/01/21 03:22:42;;;;;;;12.25;4.88;;;;;;;1.55;100.00;102033.88;5267549;28;20495;-71
2024/01/21 03:25:13;;;;;;;12.20;5.22;;;;;;;1.72;100.00;102040.09;5269199;28;20019;-71
2024/01/21 03:27:44;;;;;;;14.18;4.70;;;;;;;1.76;100.00;102034.56;5269211;28;20028;-72
2024/01/21 03:30:15;;;;;;;11.95;5.40;;;;;;;1.64;100.00;102027.25;5268268;28;20031;-71
2024/01/21 03:32:46;;;;;;;14.05;4.95;;;;;;;1.62;100.00;102018.56;5271377;28;20032;-71
2024/01/21 03:35:22;;;;;;;10.70;4.47;;;;;;;1.68;100.00;102027.97;5269706;28;20099;-71
2024/01/21 03:37:52;;;;;;;11.70;5.00;;;;;;;1.67;100.00;102032.41;5268593;28;20439;-72
2024/01/21 03:40:23;;;;;;;14.52;5.72;;;;;;;1.71;100.00;102049.84;5270486;28;20016;-71
2024/01/21 03:42:56;;;;;;;11.50;5.18;;;;;;;1.76;100.00;102068.97;5270106;28;21099;-71
2024/01/21 03:45:28;;;;;;;11.88;5.07;;;;;;;1.79;100.00;102066.16;5270764;28;20386;-72
2024/01/21 03:47:58;;;;;;;11.48;4.57;;;;;;;1.88;100.00;102064.81;5269278;28;20035;-71
2024/01/21 03:50:29;;;;;;;11.98;4.35;;;;;;;1.89;100.00;102068.31;5268701;28;20469;-72
2024/01/21 03:52:59;;;;;;;11.77;4.15;;;;;;;1.83;100.00;102066.00;5267294;28;20032;-71
2024/01/21 03:55:29;;;;;;;12.40;4.85;;;;;;;1.88;100.00;102070.13;5268672;28;20020;-72
2024/01/21 03:58:00;;;;;;;10.20;4.95;;;;;;;1.93;100.00;102075.16;5271836;28;20024;-71
2024/01/21 04:00:30;;;;;;;12.65;5.13;;;;;;;1.92;100.00;102070.81;5262820;28;20476;-72
2024/01/21 04:03:01;;;;;;;9.57;4.28;;;;;;;1.98;100.00;102068.69;5271853;28;20047;-71
2024/01/21 04:05:32;;;;;;;10.18;4.38;;;;;;;2.01;100.00;102073.00;5268384;28;20094;-71
2024/01/21 04:08:05;;;;;;;8.80;4.40;;;;;;;2.06;100.00;102068.31;5268708;28;20470;-72
2024/01/21 04:10:36;;;;;;;11.15;4.80;;;;;;;2.13;100.00;102053.78;5265990;28;20084;-71
2024/01/21 04:13:06;;;;;;;14.20;4.82;;;;;;;2.18;100.00;102053.53;5271564;28;20476;-71
2024/01/21 04:15:38;;;;;;;11.20;4.80;;;;;;;2.15;100.00;102051.91;5266732;28;20081;-71
2024/01/21 04:18:08;;;;;;;12.70;5.22;;;;;;;2.24;100.00;102040.81;5270774;28;20047;-71
2024/01/21 04:20:39;;;;;;;10.70;4.68;;;;;;;2.13;100.00;102015.88;5268140;28;20032;-72
2024/01/21 04:23:09;;;;;;;10.75;4.93;;;;;;;2.15;100.00;102024.56;5271554;28;20038;-71
2024/01/21 04:25:40;;;;;;;12.68;5.28;;;;;;;2.13;100.00;102002.63;5268360;28;20111;-71
2024/01/21 04:28:10;;;;;;;14.50;5.63;;;;;;;2.25;100.00;101984.25;5269659;28;20087;-71
2024/01/21 04:30:41;;;;;;;12.13;5.65;;;;;;;2.14;100.00;101976.06;5268045;28;20039;-71
2024/01/21 04:33:12;;;;;;;13.05;5.25;;;;;;;2.15;100.00;102001.59;5271148;28;20455;-71
2024/01/21 04:35:42;;;;;;;10.88;4.68;;;;;;;2.24;100.00;101987.00;5269104;28;20477;-71
2024/01/21 04:38:13;;;;;;;10.05;4.45;;;;;;;2.17;100.00;101977.72;5269992;28;20412;-71
2024/01/21 04:40:43;;;;;;;14.13;5.93;;;;;;;2.15;100.00;101969.81;5268078;28;20416;-72
2024/01/21 04:43:14;;;;;;;12.25;5.07;;;;;;;2.16;100.00;101963.63;5269901;28;20039;-71
2024/01/21 04:45:44;;;;;;;20.95;5.93;;;;;;;2.19;100.00;101973.16;5269406;28;20622;-72
2024/01/21 04:48:15;;;;;;;13.48;5.90;;;;;;;2.13;100.00;101958.47;5267889;28;20478;-72
2024/01/21 04:50:46;;;;;;;13.55;5.75;;;;;;;2.02;100.00;101963.53;5268235;28;20028;-72
2024/01/21 04:53:16;;;;;;;12.63;5.47;;;;;;;2.03;100.00;101952.00;5270645;28;20019;-71
2024/01/21 04:55:47;;;;;;;16.02;7.82;;;;;;;2.14;100.00;101952.25;5269209;28;20020;-71
2024/01/21 04:58:17;;;;;;;13.80;5.55;;;;;;;2.14;100.00;101957.53;5269605;28;20474;-71
2024/01/21 05:00:48;;;;;;;10.95;5.15;;;;;;;2.13;100.00;101963.78;5268206;28;20024;-71
2024/01/21 05:03:19;;;;;;;10.55;5.10;;;;;;;2.19;100.00;101963.44;5270435;28;20032;-71
2024/01/21 05:05:50;;;;;;;13.25;5.40;;;;;;;2.14;100.00;101933.72;5269125;28;20385;-72
2024/01/21 05:08:20;;;;;;;14.48;5.90;;;;;;;2.06;100.00;101941.25;5266419;28;20058;-71
2024/01/21 05:10:51;;;;;;;15.05;6.15;;;;;;;2.13;100.00;101955.84;5266528;28;20024;-71
2024/01/21 05:13:21;;;;;;;12.18;6.30;;;;;;;2.11;100.00;101957.72;5266181;28;20028;-72
2024/01/21 05:15:51;;;;;;;13.40;5.82;;;;;;;2.13;100.00;101966.44;5269403;28;20031;-71
2024/01/21 05:18:23;;;;;;;17.02;5.68;;;;;;;2.09;100.00;101978.13;5267951;28;20028;-72
2024/01/21 05:20:54;;;;;;;12.98;5.97;;;;;;;2.12;100.00;101991.19;5267996;28;20028;-71
2024/01/21 05:23:24;;;;;;;13.98;5.63;;;;;;;2.18;100.00;101972.31;5269125;28;20586;-72
2024/01/21 05:25:55;;;;;;;13.68;5.43;;;;;;;2.14;100.00;101976.06;5267451;28;20051;-72
2024/01/21 05:28:25;;;;;;;16.17;6.13;;;;;;;2.16;100.00;101974.22;5267815;28;20077;-72
2024/01/21 05:30:56;;;;;;;19.58;6.35;;;;;;;2.14;100.00;101965.47;5267587;28;20058;-72
2024/01/21 05:33:26;;;;;;;12.75;5.57;;;;;;;2.16;100.00;101953.03;5267839;28;20378;-72
2024/01/21 05:35:57;;;;;;;10.95;5.18;;;;;;;2.06;100.00;101959.78;5267587;28;20032;-72
2024/01/21 05:38:27;;;;;;;15.07;6.28;;;;;;;2.14;100.00;101957.53;5261704;28;20325;-71
2024/01/21 05:40:58;;;;;;;16.30;6.40;;;;;;;2.11;100.00;101941.84;5266947;28;20024;-71
2024/01/21 05:43:28;;;;;;;13.13;5.88;;;;;;;2.02;100.00;101937.06;5267400;28;20034;-71
2024/01/21 05:45:59;;;;;;;16.05;6.43;;;;;;;2.01;100.00;101938.84;5268465;28;20477;-72
2024/01/21 05:48:29;;;;;;;13.20;5.88;;;;;;;1.99;100.00;101934.56;5266563;28;20020;-71
2024/01/21 05:51:00;;;;;;;15.25;6.13;;;;;;;2.00;100.00;101946.84;5267830;28;20047;-72
2024/01/21 05:53:30;;;;;;;13.40;6.00;;;;;;;1.97;100.00;101947.88;5261424;28;20032;-72
2024/01/21 05:56:01;;;;;;;13.90;5.78;;;;;;;1.98;100.00;101948.75;5267533;28;20053;-72
2024/01/21 05:58:31;;;;;;;13.52;6.05;;;;;;;1.95;100.00;101941.81;5266746;28;20016;-71
2024/01/21 06:01:02;;;;;;;15.57;5.88;;;;;;;1.87;100.00;101957.25;5268641;28;20016;-71
2024/01/21 06:03:32;;;;;;;12.65;5.40;;;;;;;1.90;100.00;101946.50;5267894;28;20099;-71
2024/01/21 06:06:03;;;;;;;13.68;5.78;;;;;;;1.91;100.00;101953.53;5268220;28;20023;-71
2024/01/21 06:08:33;;;;;;;16.08;5.85;;;;;;;1.91;100.00;101963.22;5267528;28;20473;-71
2024/01/21 06:11:04;;;;;;;12.80;6.35;;;;;;;1.95;100.00;101970.06;5252825;28;20034;-71
2024/01/21 06:13:35;;;;;;;15.73;5.90;;;;;;;2.03;100.00;101973.16;5264245;28;20032;-71
2024/01/21 06:16:05;;;;;;;16.45;5.43;;;;;;;2.03;100.00;101952.00;5266662;28;20031;-72
2024/01/21 06:18:36;;;;;;;13.35;5.90;;;;;;;2.07;100.00;101949.09;5265788;28;20077;-71
2024/01/21 06:21:06;;;;;;;11.68;6.45;;;;;;;2.09;100.00;101954.28;5265887;28;20023;-71
2024/01/21 06:23:37;;;;;;;12.48;5.93;;;;;;;2.12;100.00;101951.47;5266794;28;20431;-71
2024/01/21 06:26:15;;;;;;;14.25;6.40;;;;;;;2.16;100.00;101976.84;5267193;28;20077;-71
2024/01/21 06:28:46;;;;;;;13.00;5.47;;;;;;;2.11;100.00;101970.97;5267955;28;20032;-71
2024/01/21 06:31:17;;;;;;;14.13;5.60;;;;;;;2.18;100.00;101951.13;5267672;28;20025;-71
2024/01/21 06:33:48;;;;;;;12.02;5.35;;;;;;;2.21;100.00;101961.56;5268375;28;20100;-71
2024/01/21 06:36:19;;;;;;;13.23;5.95;;;;;;;2.29;100.00;101969.94;5265179;28;20011;-71
2024/01/21 06:38:49;;;;;;;13.77;5.38;;;;;;;2.21;100.00;101977.47;5268149;28;20117;-71
2024/01/21 06:41:20;;;;;;;11.27;5.53;;;;;;;2.31;100.00;101976.00;5267729;28;20028;-71
2024/01/21 06:43:50;;;;;;;13.20;4.80;;;;;;;2.29;100.00;101963.78;5268619;28;20413;-71
2024/01/21 06:46:21;;;;;;;11.48;5.68;;;;;;;2.27;100.00;101966.53;5267332;28;20020;-71
2024/01/21 06:48:51;;;;;;;15.15;5.53;;;;;;;2.23;100.00;101975.56;5267897;28;20032;-71
2024/01/21 06:51:43;;;;;;;13.50;6.13;;;;;;;2.23;100.00;101946.44;5267361;28;20016;-71
2024/01/21 06:54:13;;;;;;;12.23;4.97;;;;;;;2.23;100.00;101937.66;5268903;28;20032;-72
2024/01/21 06:56:44;;;;;;;10.55;5.30;;;;;;;2.17;100.00;101925.63;5267176;28;20500;-71
2024/01/21 06:59:15;;;;;;;11.52;5.05;;;;;;;2.25;100.00;101935.75;5266865;28;20020;-71
2024/01/21 07:01:45;;;;;;;12.02;5.20;;;;;;;2.24;100.00;101944.66;5267358;28;20471;-71
2024/01/21 07:04:18;;;;;;;9.63;4.63;;;;;;;2.11;100.00;101906.53;5269436;27;20386;-71
2024/01/21 07:06:48;;;;;;;11.07;4.93;;;;;;;2.00;100.00;101900.06;5267071;28;20046;-71
2024/01/21 07:09:19;;;;;;;10.70;4.53;;;;;;;2.15;100.00;101908.94;5267230;28;20028;-71
2024/01/21 07:11:49;;;;;;;11.32;4.82;;;;;;;2.06;100.00;101889.16;5267332;28;20046;-71
2024/01/21 07:14:20;;;;;;;16.13;5.45;;;;;;;2.21;100.00;101905.09;5267495;28;20036;-71
2024/01/21 07:16:50;;;;;;;10.85;5.30;;;;;;;2.13;100.00;101897.59;5266995;28;20047;-71
2024/01/21 07:19:21;;;;;;;11.93;5.07;;;;;;;2.14;100.00;101899.28;5266371;28;20077;-71
2024/01/21 07:21:51;;;;;;;13.32;4.90;;;;;;;2.19;100.00;101907.84;5267174;28;20502;-71
2024/01/21 07:24:22;;;;;;;12.07;4.78;;;;;;;2.15;100.00;101923.97;5267973;28;20032;-71
2024/01/21 07:26:52;;;;;;;11.65;5.40;;;;;;;2.21;100.00;101935.09;5267492;28;20020;-71
2024/01/21 07:29:23;;;;;;;11.77;4.70;;;;;;;2.16;100.00;101913.31;5267761;28;20461;-71
2024/01/21 07:31:53;;;;;;;10.82;5.05;;;;;;;2.17;100.00;101914.16;5267825;28;20497;-71
2024/01/21 07:34:24;;;;;;;13.25;5.30;;;;;;;2.26;100.00;101940.09;5270198;28;20024;-71
2024/01/21 07:36:54;;;;;;;11.95;4.50;;;;;;;2.19;100.00;101944.03;5270591;28;20028;-71
2024/01/21 07:39:25;;;;;;;13.48;4.30;;;;;;;2.18;100.00;101958.22;5271016;28;20030;-71
2024/01/21 07:41:55;;;;;;;8.73;4.40;;;;;;;2.37;100.00;101955.41;5272205;28;20032;-71
2024/01/21 07:44:26;;;;;;;12.45;5.03;;;;;;;2.34;100.00;101951.97;5270226;28;20032;-71
2024/01/21 07:46:56;;;;;;;9.60;4.68;;;;;;;2.33;100.00;101939.69;5272766;28;20030;-71
2024/01/21 07:49:27;;;;;;;7.63;3.75;;;;;;;2.41;100.00;101962.22;5270197;28;20020;-71
2024/01/21 07:51:57;;;;;;;12.32;4.90;;;;;;;2.49;100.00;101970.59;5270296;28;20028;-71
2024/01/21 07:54:27;;;;;;;11.32;4.55;;;;;;;2.55;100.00;101979.06;5269602;28;20028;-71
2024/01/21 07:56:58;;;;;;;11.70;4.88;;;;;;;2.53;100.00;101974.78;5272111;28;20694;-71
2024/01/21 07:59:29;;;;;;;11.65;4.90;;;;;;;2.62;100.00;101986.66;5269935;27;20436;-71
2024/01/21 08:01:59;;;;;;;12.13;4.88;;;;;;;2.64;100.00;101996.22;5272197;28;20120;-72
2024/01/21 08:04:30;;;;;;;9.38;4.70;;;;;;;2.66;100.00;101994.38;5279779;28;20478;-71
2024/01/21 08:07:00;;;;;;;8.90;4.60;;;;;;;2.64;100.00;101993.56;5278758;28;20626;-71
2024/01/21 08:09:31;;;;;;;7.43;3.90;;;;;;;2.68;100.00;101988.97;5276314;28;20603;-71
2024/01/21 08:12:02;;;;;;;12.07;5.65;;;;;;;2.72;100.00;101987.84;5278069;28;20393;-72
2024/01/21 08:14:32;;;;;;;10.88;4.28;;;;;;;2.81;100.00;101993.47;5269529;28;20028;-71
2024/01/21 08:17:03;;;;;;;9.48;4.57;;;;;;;2.94;100.00;102019.28;5271474;28;20363;-71
2024/01/21 08:19:38;;;;;;;10.13;4.55;;;;;;;2.95;100.00;102005.06;5269718;28;20038;-71
2024/01/21 08:22:08;;;;;;;10.40;4.72;;;;;;;3.06;100.00;101995.56;5270958;28;20460;-71
2024/01/21 08:24:39;;;;;;;9.43;4.63;;;;;;;3.03;100.00;101989.59;5275681;28;20016;-71
2024/01/21 08:27:09;;;;;;;10.93;5.05;;;;;;;3.10;100.00;101997.06;5283348;28;20055;-71
2024/01/21 08:29:40;;;;;;;12.80;5.60;;;;;;;3.13;100.00;102005.81;5273736;28;20062;-72
2024/01/21 08:32:10;;;;;;;12.38;6.43;;;;;;;3.07;100.00;101991.97;5268880;28;20027;-71
2024/01/21 08:34:41;;;;;;;12.32;5.22;;;;;;;3.12;100.00;102002.31;5269349;28;20576;-70
2024/01/21 08:37:11;;;;;;;9.25;4.85;;;;;;;3.15;100.00;102009.22;5278642;28;20035;-70
2024/01/21 08:39:43;;;;;;;11.60;5.10;;;;;;;3.16;100.00;102006.47;5279801;28;20031;-70
2024/01/21 08:42:13;;;;;;;13.15;5.30;;;;;;;3.19;100.00;101993.03;5272342;28;20024;-70
2024/01/21 08:44:44;;;;;;;10.95;5.22;;;;;;;3.24;100.00;101995.41;5277952;28;20039;-70
2024/01/21 08:47:14;;;;;;;15.25;5.47;;;;;;;3.19;100.00;101985.06;5276785;28;20019;-71
2024/01/21 08:49:45;;;;;;;11.93;5.30;;;;;;;3.22;100.00;101992.88;5275135;28;20035;-70
2024/01/21 08:52:15;;;;;;;12.05;5.03;;;;;;;3.40;100.00;102008.63;5276733;28;20026;-71
2024/01/21 08:54:46;;;;;;;15.25;5.28;;;;;;;3.29;100.00;101996.84;5268612;28;20061;-70
2024/01/21 08:57:16;;;;;;;13.05;5.82;;;;;;;3.38;100.00;102001.59;5272397;28;20769;-70
2024/01/21 08:59:47;;;;;;;17.30;5.82;;;;;;;3.44;100.00;102010.16;5273202;27;20036;-70
2024/01/21 09:02:19;;;;;;;13.20;6.00;;;;;;;3.42;100.00;102012.91;5272420;28;20283;-70
2024/01/21 09:04:49;;;;;;;17.85;6.43;;;;;;;3.46;100.00;102009.09;5272611;28;20081;-71
2024/01/21 09:07:19;;;;;;;11.73;5.70;;;;;;;3.52;100.00;102035.28;5277744;28;20027;-71
2024/01/21 09:09:50;;;;;;;11.65;5.50;;;;;;;3.50;100.00;102025.69;5278469;28;20783;-70
2024/01/21 09:12:21;;;;;;;9.85;5.43;;;;;;;3.63;100.00;102035.47;5271742;28;20043;-71
2024/01/21 09:14:51;;;;;;;13.73;6.35;;;;;;;3.66;100.00;102038.88;5272447;28;20028;-70
2024/01/21 09:17:22;;;;;;;12.10;5.00;;;;;;;3.69;100.00;102038.72;5275154;28;20504;-70
2024/01/21 09:19:52;;;;;;;17.80;5.78;;;;;;;3.72;100.00;102043.84;5275277;28;20019;-71
2024/01/21 09:22:23;;;;;;;9.50;5.13;;;;;;;3.73;100.00;102042.91;5269014;28;20028;-70
2024/01/21 09:24:53;;;;;;;15.07;5.60;;;;;;;3.70;100.00;102051.88;5274958;28;20110;-71
2024/01/21 09:27:24;;;;;;;11.43;5.93;;;;;;;3.68;100.00;102058.25;5283242;28;20027;-71
2024/01/21 09:29:54;;;;;;;14.27;6.03;;;;;;;3.85;100.00;102056.25;5283913;28;20489;-71
2024/01/21 09:32:25;;;;;;;11.93;5.88;;;;;;;3.83;100.00;102049.34;5274396;28;20036;-70
2024/01/21 09:34:56;;;;;;;9.98;5.25;;;;;;;3.83;100.00;102057.31;5275939;28;20031;-71
2024/01/21 09:37:26;;;;;;;10.00;5.07;;;;;;;3.88;100.00;102045.47;5277042;28;20019;-71
2024/01/21 09:39:56;;;;;;;10.48;5.68;;;;;;;3.96;100.00;102041.47;5283582;28;20023;-71
2024/01/21 09:42:27;;;;;;;11.73;5.60;;;;;;;3.90;100.00;102037.41;5279499;28;20032;-71
2024/01/21 09:44:58;;;;;;;11.93;5.45;;;;;;;3.87;100.00;102051.72;5274720;28;20059;-71
2024/01/21 09:47:28;;;;;;;10.68;4.85;;;;;;;3.90;100.00;102046.22;5271394;28;20027;-71
2024/01/21 09:49:59;;;;;;;13.55;5.63;;;;;;;4.03;100.00;102058.75;5269729;28;20035;-71
2024/01/21 09:52:29;;;;;;;13.70;6.55;;;;;;;3.99;100.00;102057.22;5277680;28;20032;-71
2024/01/21 09:55:00;;;;;;;13.73;5.40;;;;;;;4.02;100.00;102047.28;5275297;28;20073;-71
2024/01/21 09:57:31;;;;;;;12.30;5.47;;;;;;;4.10;100.00;102063.56;5281060;28;20023;-71
2024/01/21 10:00:02;;;;;;;10.65;5.28;;;;;;;4.15;100.00;102052.66;5277589;28;20157;-70
2024/01/21 10:02:33;;;;;;;10.65;5.60;;;;;;;4.05;100.00;102046.22;5275423;28;20118;-71
2024/01/21 10:05:04;;;;;;;10.98;5.47;;;;;;;4.10;100.00;102046.78;5281997;27;20031;-71
2024/01/21 10:07:37;;;;;;;15.57;5.45;;;;;;;4.15;100.00;102032.28;5277046;28;20024;-71
2024/01/21 10:10:08;;;;;;;13.43;6.05;;;;;;;4.25;100.00;102039.66;5279769;28;20024;-70
2024/01/21 10:12:38;;;;;;;13.45;5.97;;;;;;;4.24;100.00;102052.09;5277403;28;20042;-71
2024/01/21 10:15:13;;;;;;;10.48;5.10;;;;;;;4.23;100.00;102033.63;5275150;28;20489;-71
2024/01/21 10:17:43;;;;;;;11.68;5.03;;;;;;;4.31;100.00;102033.97;5283036;27;20024;-71
2024/01/21 10:20:14;;;;;;;9.30;4.70;;;;;;;4.38;100.00;102020.22;5278439;28;20024;-71
2024/01/21 10:22:45;;;;;;;10.52;4.38;;;;;;;4.47;100.00;102008.16;5280536;28;20042;-71
2024/01/21 10:25:15;;;;;;;10.15;5.28;;;;;;;4.58;100.00;102005.66;5273823;27;20072;-71
2024/01/21 10:27:52;;;;;;;10.85;5.32;;;;;;;4.60;100.00;101990.44;5278307;28;20039;-71
2024/01/21 10:30:22;;;;;;;10.50;5.55;;;;;;;4.57;100.00;101981.84;5272932;28;20028;-70
2024/01/21 10:32:53;;;;;;;11.20;4.82;;;;;;;4.63;100.00;101987.59;5277197;28;20543;-71
2024/01/21 10:35:24;;;;;;;13.63;5.65;;;;;;;4.72;100.00;101983.50;5274777;28;20030;-71
2024/01/21 10:37:55;;;;;;;14.15;5.68;;;;;;;4.73;100.00;101984.34;5282361;28;20024;-71
2024/01/21 10:40:25;;;;;;;11.35;4.53;;;;;;;4.76;100.00;101979.66;5280353;28;20067;-71
2024/01/21 10:42:59;;;;;;;13.30;6.00;;;;;;;4.94;100.00;101988.22;5282006;28;20027;-71
2024/01/21 10:45:32;;;;;;;11.23;4.95;;;;;;;5.15;100.00;102001.91;5276979;28;20034;-71
2024/01/21 10:48:04;;;;;;;9.68;4.90;;;;;;;5.08;100.00;101989.97;5272565;28;20063;-70
2024/01/21 10:50:35;;;;;;;11.73;5.03;;;;;;;5.16;100.00;101991.16;5270342;28;20032;-71
2024/01/21 10:53:06;;;;;;;9.63;5.22;;;;;;;5.00;100.00;101982.50;5276175;28;20634;-71
2024/01/21 10:55:40;;;;;;;8.70;5.05;;;;;;;5.06;100.00;101974.09;5275110;28;20024;-71
2024/01/21 10:58:11;;;;;;;9.60;5.18;;;;;;;5.11;100.00;101974.66;5274581;28;20035;-71
2024/01/21 11:00:42;;;;;;;9.88;4.43;;;;;;;5.24;100.00;101989.78;5271974;27;20077;-72
2024/01/21 11:03:27;;;;;;;11.27;4.53;;;;;;;5.22;100.00;101992.56;5274277;28;20424;-71
2024/01/21 11:06:00;;;;;;;9.10;4.68;;;;;;;5.32;100.00;101985.66;5281283;28;20106;-71
2024/01/21 11:08:31;;;;;;;9.38;4.20;;;;;;;5.37;100.00;101982.66;5281619;28;20031;-71
2024/01/21 11:11:16;;;;;;;11.85;4.88;;;;;;;5.41;100.00;101986.81;5285171;28;20046;-71
2024/01/21 11:13:49;;;;;;;11.87;4.87;;;;;;;5.57;100.00;101997.25;5277711;28;20028;-71
2024/01/21 11:16:28;;;;;;;10.70;4.70;;;;;;;5.52;100.00;102018.03;5276861;27;20423;-71
2024/01/21 11:19:04;;;;;;;10.15;5.13;;;;;;;5.58;100.00;101994.53;5282984;28;20484;-71
2024/01/21 11:21:41;;;;;;;11.50;4.82;;;;;;;5.57;100.00;101981.28;5280829;28;20089;-71
2024/01/21 11:24:13;;;;;;;12.02;4.43;;;;;;;5.59;100.00;101995.38;5282955;28;20111;-71
2024/01/21 11:26:47;;;;;;;11.75;4.78;;;;;;;5.49;100.00;101979.19;5252299;28;20085;-71
2024/01/21 11:29:30;;;;;;;9.45;5.05;;;;;;;5.52;100.00;101983.41;5267169;28;20032;-71
2024/01/21 11:32:03;;;;;;;10.52;4.90;;;;;;;5.46;100.00;101984.69;5275672;28;20099;-70
2024/01/21 11:34:37;;;;;;;10.75;5.43;;;;;;;5.59;100.00;101998.03;5265487;28;20049;-71
2024/01/21 11:37:10;;;;;;;11.50;5.18;;;;;;;5.64;100.00;101994.09;5270772;28;20020;-71